sensor_id;sensor_type;location;lat;lon;timestamp;temperature;humidity
3709;DHT22;1870;53.996;10.784;2023-05-07T00:01:42;11.20;99.90
3709;DHT22;1870;53.996;10.784;2023-05-07T00:04:08;11.20;99.90
3709;DHT22;1870;53.996;10.784;2023-05-07T00:06:33;11.20;99.90
3709;DHT22;1870;53.996;10.784;2023-05-07T00:08:59;11.10;99.90
3709;DHT22;1870;53.996;10.784;2023-05-07T00:11:26;11.20;99.90
3709;DHT22;1870;53.996;10.784;2023-05-07T00:13:52;11.20;99.90
3709;DHT22;1870;53.996;10.784;2023-05-07T00:16:20;11.10;99.90
3709;DHT22;1870;53.996;10.784;2023-05-07T00:18:46;11.20;99.90
3709;DHT22;1870;53.996;10.784;2023-05-07T00:21:11;11.20;99.90
3709;DHT22;1870;53.996;10.784;2023-05-07T00:23:37;11.20;99.90
3709;DHT22;1870;53.996;10.784;2023-05-07T00:26:03;11.30;99.90
3709;DHT22;1870;53.996;10.784;2023-05-07T00:28:29;11.20;99.90
3709;DHT22;1870;53.996;10.784;2023-05-07T00:30:55;11.20;99.90
3709;DHT22;1870;53.996;10.784;2023-05-07T00:33:22;11.20;99.90
3709;DHT22;1870;53.996;10.784;2023-05-07T00:35:48;11.10;99.90
3709;DHT22;1870;53.996;10.784;2023-05-07T00:38:14;11.10;99.90
3709;DHT22;1870;53.996;10.784;2023-05-07T00:40:40;11.20;99.90
3709;DHT22;1870;53.996;10.784;2023-05-07T00:43:06;11.10;99.90
3709;DHT22;1870;53.996;10.784;2023-05-07T00:45:33;11.00;99.90
3709;DHT22;1870;53.996;10.784;2023-05-07T00:48:00;11.00;99.90
3709;DHT22;1870;53.996;10.784;2023-05-07T00:50:27;11.00;99.90
3709;DHT22;1870;53.996;10.784;2023-05-07T00:52:53;10.90;99.90
3709;DHT22;1870;53.996;10.784;2023-05-07T00:55:20;10.80;99.90
3709;DHT22;1870;53.996;10.784;2023-05-07T00:57:46;10.80;99.90
3709;DHT22;1870;53.996;10.784;2023-05-07T01:00:12;10.70;99.90
3709;DHT22;1870;53.996;10.784;2023-05-07T01:02:39;10.70;99.90
3709;DHT22;1870;53.996;10.784;2023-05-07T01:05:05;10.80;99.90
3709;DHT22;1870;53.996;10.784;2023-05-07T01:07:33;10.70;99.90
3709;DHT22;1870;53.996;10.784;2023-05-07T01:10:00;10.70;99.90
3709;DHT22;1870;53.996;10.784;2023-05-07T01:12:28;10.80;99.90
3709;DHT22;1870;53.996;10.784;2023-05-07T01:14:54;10.70;99.90
3709;DHT22;1870;53.996;10.784;2023-05-07T01:17:20;10.70;99.90
3709;DHT22;1870;53.996;10.784;2023-05-07T01:19:45;10.80;99.90
3709;DHT22;1870;53.996;10.784;2023-05-07T01:22:15;10.70;99.90
3709;DHT22;1870;53.996;10.784;2023-05-07T01:24:42;10.70;99.90
3709;DHT22;1870;53.996;10.784;2023-05-07T01:27:08;10.80;99.90
3709;DHT22;1870;53.996;10.784;2023-05-07T01:29:33;10.80;99.90
3709;DHT22;1870;53.996;10.784;2023-05-07T01:32:00;10.70;99.90
3709;DHT22;1870;53.996;10.784;2023-05-07T01:34:32;10.80;99.90
3709;DHT22;1870;53.996;10.784;2023-05-07T01:36:59;10.70;99.90
3709;DHT22;1870;53.996;10.784;2023-05-07T01:39:27;10.70;99.90
3709;DHT22;1870;53.996;10.784;2023-05-07T01:41:55;10.80;99.90
3709;DHT22;1870;53.996;10.784;2023-05-07T01:44:22;10.80;99.90
3709;DHT22;1870;53.996;10.784;2023-05-07T01:46:48;10.90;99.90
3709;DHT22;1870;53.996;10.784;2023-05-07T01:49:15;10.90;99.90
3709;DHT22;1870;53.996;10.784;2023-05-07T01:51:41;10.90;99.90
3709;DHT22;1870;53.996;10.784;2023-05-07T01:54:08;11.00;99.90
3709;DHT22;1870;53.996;10.784;2023-05-07T01:56:33;11.10;99.90
3709;DHT22;1870;53.996;10.784;2023-05-07T01:58:59;11.10;99.90
3709;DHT22;1870;53.996;10.784;2023-05-07T02:01:25;11.00;99.90
3709;DHT22;1870;53.996;10.784;2023-05-07T02:03:51;11.00;99.90
3709;DHT22;1870;53.996;10.784;2023-05-07T02:06:17;11.00;99.90
3709;DHT22;1870;53.996;10.784;2023-05-07T02:08:42;11.00;99.90
3709;DHT22;1870;53.996;10.784;2023-05-07T02:11:08;11.00;99.90
3709;DHT22;1870;53.996;10.784;2023-05-07T02:13:34;11.00;99.90
3709;DHT22;1870;53.996;10.784;2023-05-07T02:16:00;11.00;99.90
3709;DHT22;1870;53.996;10.784;2023-05-07T02:18:26;11.00;99.90
3709;DHT22;1870;53.996;10.784;2023-05-07T02:20:52;11.00;99.90
3709;DHT22;1870;53.996;10.784;2023-05-07T02:23:17;10.90;99.90
3709;DHT22;1870;53.996;10.784;2023-05-07T02:25:43;11.00;99.90
3709;DHT22;1870;53.996;10.784;2023-05-07T02:28:12;11.00;99.90
3709;DHT22;1870;53.996;10.784;2023-05-07T02:30:38;10.90;99.90
3709;DHT22;1870;53.996;10.784;2023-05-07T02:33:03;10.90;99.90
3709;DHT22;1870;53.996;10.784;2023-05-07T02:35:29;11.00;99.90
3709;DHT22;1870;53.996;10.784;2023-05-07T02:37:55;10.90;99.90
3709;DHT22;1870;53.996;10.784;2023-05-07T02:40:20;10.90;99.90
3709;DHT22;1870;53.996;10.784;2023-05-07T02:42:46;10.90;99.90
3709;DHT22;1870;53.996;10.784;2023-05-07T02:45:12;10.90;99.90
3709;DHT22;1870;53.996;10.784;2023-05-07T02:47:37;10.90;99.90
3709;DHT22;1870;53.996;10.784;2023-05-07T02:50:03;11.00;99.90
3709;DHT22;1870;53.996;10.784;2023-05-07T02:52:32;10.90;99.90
3709;DHT22;1870;53.996;10.784;2023-05-07T02:54:57;10.90;99.90
3709;DHT22;1870;53.996;10.784;2023-05-07T02:57:23;10.90;99.90
3709;DHT22;1870;53.996;10.784;2023-05-07T02:59:48;11.00;99.90
3709;DHT22;1870;53.996;10.784;2023-05-07T03:02:14;11.00;99.90
3709;DHT22;1870;53.996;10.784;2023-05-07T03:04:40;11.10;99.90
3709;DHT22;1870;53.996;10.784;2023-05-07T03:07:06;11.00;99.90
3709;DHT22;1870;53.996;10.784;2023-05-07T03:09:32;11.00;99.90
3709;DHT22;1870;53.996;10.784;2023-05-07T03:11:57;10.90;99.90
3709;DHT22;1870;53.996;10.784;2023-05-07T03:14:23;11.00;99.90
3709;DHT22;1870;53.996;10.784;2023-05-07T03:16:49;10.90;99.90
3709;DHT22;1870;53.996;10.784;2023-05-07T03:19:15;10.90;99.90
3709;DHT22;1870;53.996;10.784;2023-05-07T03:21:41;10.90;99.90
3709;DHT22;1870;53.996;10.784;2023-05-07T03:24:07;10.90;99.90
3709;DHT22;1870;53.996;10.784;2023-05-07T03:26:32;11.00;99.90
3709;DHT22;1870;53.996;10.784;2023-05-07T03:28:58;11.00;99.90
3709;DHT22;1870;53.996;10.784;2023-05-07T03:31:23;10.90;99.90
3709;DHT22;1870;53.996;10.784;2023-05-07T03:33:51;11.00;99.90
3709;DHT22;1870;53.996;10.784;2023-05-07T03:36:17;11.00;99.90
3709;DHT22;1870;53.996;10.784;2023-05-07T03:38:43;11.10;99.90
3709;DHT22;1870;53.996;10.784;2023-05-07T03:41:08;11.00;99.90
3709;DHT22;1870;53.996;10.784;2023-05-07T03:43:34;11.10;99.90
3709;DHT22;1870;53.996;10.784;2023-05-07T03:45:59;10.90;99.90
3709;DHT22;1870;53.996;10.784;2023-05-07T03:48:25;11.00;99.90
3709;DHT22;1870;53.996;10.784;2023-05-07T03:50:51;11.00;99.90
3709;DHT22;1870;53.996;10.784;2023-05-07T03:53:17;11.00;99.90
3709;DHT22;1870;53.996;10.784;2023-05-07T03:55:42;11.00;99.90
3709;DHT22;1870;53.996;10.784;2023-05-07T03:58:08;10.90;99.90
3709;DHT22;1870;53.996;10.784;2023-05-07T04:00:33;10.90;99.90
3709;DHT22;1870;53.996;10.784;2023-05-07T04:03:03;11.00;99.90
3709;DHT22;1870;53.996;10.784;2023-05-07T04:05:30;11.00;99.90
3709;DHT22;1870;53.996;10.784;2023-05-07T04:07:57;11.00;99.90
3709;DHT22;1870;53.996;10.784;2023-05-07T04:10:22;11.00;99.90
3709;DHT22;1870;53.996;10.784;2023-05-07T04:12:48;10.90;99.90
3709;DHT22;1870;53.996;10.784;2023-05-07T04:15:14;10.90;99.90
3709;DHT22;1870;53.996;10.784;2023-05-07T04:17:40;10.90;99.90
3709;DHT22;1870;53.996;10.784;2023-05-07T04:20:09;10.80;99.90
3709;DHT22;1870;53.996;10.784;2023-05-07T04:22:36;10.90;99.90
3709;DHT22;1870;53.996;10.784;2023-05-07T04:25:02;11.00;99.90
3709;DHT22;1870;53.996;10.784;2023-05-07T04:27:28;11.00;99.90
3709;DHT22;1870;53.996;10.784;2023-05-07T04:29:53;11.00;99.90
3709;DHT22;1870;53.996;10.784;2023-05-07T04:32:22;11.00;99.90
3709;DHT22;1870;53.996;10.784;2023-05-07T04:34:47;11.10;99.90
3709;DHT22;1870;53.996;10.784;2023-05-07T04:37:13;11.10;99.90
3709;DHT22;1870;53.996;10.784;2023-05-07T04:39:38;11.20;99.90
3709;DHT22;1870;53.996;10.784;2023-05-07T04:42:04;11.20;99.90
3709;DHT22;1870;53.996;10.784;2023-05-07T04:44:30;11.30;99.90
3709;DHT22;1870;53.996;10.784;2023-05-07T04:46:56;11.40;99.90
3709;DHT22;1870;53.996;10.784;2023-05-07T04:49:22;11.40;99.90
3709;DHT22;1870;53.996;10.784;2023-05-07T04:51:48;11.40;99.90
3709;DHT22;1870;53.996;10.784;2023-05-07T04:54:14;11.40;99.90
3709;DHT22;1870;53.996;10.784;2023-05-07T04:56:39;11.40;99.90
3709;DHT22;1870;53.996;10.784;2023-05-07T04:59:05;11.50;99.90
3709;DHT22;1870;53.996;10.784;2023-05-07T05:01:31;11.40;99.90
3709;DHT22;1870;53.996;10.784;2023-05-07T05:03:57;11.40;99.90
3709;DHT22;1870;53.996;10.784;2023-05-07T05:06:23;11.30;99.90
3709;DHT22;1870;53.996;10.784;2023-05-07T05:08:48;11.40;99.90
3709;DHT22;1870;53.996;10.784;2023-05-07T05:11:14;11.20;99.90
3709;DHT22;1870;53.996;10.784;2023-05-07T05:13:40;11.30;99.90
3709;DHT22;1870;53.996;10.784;2023-05-07T05:16:06;11.40;99.90
3709;DHT22;1870;53.996;10.784;2023-05-07T05:18:35;11.50;99.90
3709;DHT22;1870;53.996;10.784;2023-05-07T05:21:01;11.60;99.90
3709;DHT22;1870;53.996;10.784;2023-05-07T05:23:27;11.60;99.90
3709;DHT22;1870;53.996;10.784;2023-05-07T05:25:56;11.60;99.90
3709;DHT22;1870;53.996;10.784;2023-05-07T05:28:23;11.60;99.90
3709;DHT22;1870;53.996;10.784;2023-05-07T05:30:49;11.60;99.90
3709;DHT22;1870;53.996;10.784;2023-05-07T05:33:15;11.70;99.90
3709;DHT22;1870;53.996;10.784;2023-05-07T05:35:41;11.70;99.90
3709;DHT22;1870;53.996;10.784;2023-05-07T05:38:06;11.80;99.90
3709;DHT22;1870;53.996;10.784;2023-05-07T05:40:32;11.70;99.90
3709;DHT22;1870;53.996;10.784;2023-05-07T05:42:58;11.80;99.90
3709;DHT22;1870;53.996;10.784;2023-05-07T05:45:24;11.80;99.90
3709;DHT22;1870;53.996;10.784;2023-05-07T05:47:50;11.90;99.90
3709;DHT22;1870;53.996;10.784;2023-05-07T05:50:16;12.00;99.90
3709;DHT22;1870;53.996;10.784;2023-05-07T05:52:41;12.00;99.90
3709;DHT22;1870;53.996;10.784;2023-05-07T05:55:07;12.20;99.90
3709;DHT22;1870;53.996;10.784;2023-05-07T05:57:33;12.10;99.90
3709;DHT22;1870;53.996;10.784;2023-05-07T06:00:02;12.20;99.90
3709;DHT22;1870;53.996;10.784;2023-05-07T06:02:28;12.30;99.90
3709;DHT22;1870;53.996;10.784;2023-05-07T06:04:53;12.20;99.90
3709;DHT22;1870;53.996;10.784;2023-05-07T06:07:19;12.20;99.90
3709;DHT22;1870;53.996;10.784;2023-05-07T06:09:45;12.30;99.90
3709;DHT22;1870;53.996;10.784;2023-05-07T06:12:11;12.40;99.90
3709;DHT22;1870;53.996;10.784;2023-05-07T06:14:36;12.50;99.90
3709;DHT22;1870;53.996;10.784;2023-05-07T06:17:02;12.50;99.90
3709;DHT22;1870;53.996;10.784;2023-05-07T06:19:28;12.60;99.90
3709;DHT22;1870;53.996;10.784;2023-05-07T06:21:54;12.80;99.90
3709;DHT22;1870;53.996;10.784;2023-05-07T06:24:21;12.80;99.90
3709;DHT22;1870;53.996;10.784;2023-05-07T06:26:47;12.70;99.90
3709;DHT22;1870;53.996;10.784;2023-05-07T06:29:12;12.90;99.90
3709;DHT22;1870;53.996;10.784;2023-05-07T06:31:38;13.00;99.90
3709;DHT22;1870;53.996;10.784;2023-05-07T06:34:04;13.10;99.90
3709;DHT22;1870;53.996;10.784;2023-05-07T06:36:30;13.30;99.90
3709;DHT22;1870;53.996;10.784;2023-05-07T06:38:56;13.30;99.90
3709;DHT22;1870;53.996;10.784;2023-05-07T06:41:21;13.20;99.90
3709;DHT22;1870;53.996;10.784;2023-05-07T06:43:47;13.00;99.90
3709;DHT22;1870;53.996;10.784;2023-05-07T06:46:13;13.00;99.90
3709;DHT22;1870;53.996;10.784;2023-05-07T06:48:38;13.10;99.90
3709;DHT22;1870;53.996;10.784;2023-05-07T06:51:04;13.20;99.90
3709;DHT22;1870;53.996;10.784;2023-05-07T06:53:30;13.50;99.90
3709;DHT22;1870;53.996;10.784;2023-05-07T06:55:56;13.50;99.90
3709;DHT22;1870;53.996;10.784;2023-05-07T06:58:22;13.50;99.90
3709;DHT22;1870;53.996;10.784;2023-05-07T07:00:48;13.50;99.90
3709;DHT22;1870;53.996;10.784;2023-05-07T07:03:14;13.70;99.90
3709;DHT22;1870;53.996;10.784;2023-05-07T07:05:42;13.80;99.90
3709;DHT22;1870;53.996;10.784;2023-05-07T07:08:09;13.80;99.90
3709;DHT22;1870;53.996;10.784;2023-05-07T07:10:35;13.80;99.90
3709;DHT22;1870;53.996;10.784;2023-05-07T07:13:00;13.80;99.90
3709;DHT22;1870;53.996;10.784;2023-05-07T07:15:26;13.80;99.90
3709;DHT22;1870;53.996;10.784;2023-05-07T07:17:54;13.70;99.90
3709;DHT22;1870;53.996;10.784;2023-05-07T07:20:19;13.90;99.90
3709;DHT22;1870;53.996;10.784;2023-05-07T07:22:45;13.90;99.90
3709;DHT22;1870;53.996;10.784;2023-05-07T07:25:11;13.90;99.90
3709;DHT22;1870;53.996;10.784;2023-05-07T07:27:37;13.90;99.90
3709;DHT22;1870;53.996;10.784;2023-05-07T07:30:03;13.90;99.90
3709;DHT22;1870;53.996;10.784;2023-05-07T07:32:29;13.90;99.90
3709;DHT22;1870;53.996;10.784;2023-05-07T07:34:54;13.80;99.90
3709;DHT22;1870;53.996;10.784;2023-05-07T07:37:20;13.90;99.90
3709;DHT22;1870;53.996;10.784;2023-05-07T07:39:46;13.90;99.90
3709;DHT22;1870;53.996;10.784;2023-05-07T07:42:11;14.00;99.90
3709;DHT22;1870;53.996;10.784;2023-05-07T07:44:37;14.00;99.90
3709;DHT22;1870;53.996;10.784;2023-05-07T07:47:04;14.20;99.90
3709;DHT22;1870;53.996;10.784;2023-05-07T07:49:30;14.30;99.90
3709;DHT22;1870;53.996;10.784;2023-05-07T07:51:56;14.30;99.90
3709;DHT22;1870;53.996;10.784;2023-05-07T07:54:23;14.40;99.90
3709;DHT22;1870;53.996;10.784;2023-05-07T07:56:49;14.50;99.90
3709;DHT22;1870;53.996;10.784;2023-05-07T07:59:15;14.70;99.90
3709;DHT22;1870;53.996;10.784;2023-05-07T08:01:44;14.70;99.90
3709;DHT22;1870;53.996;10.784;2023-05-07T08:04:10;14.90;99.90
3709;DHT22;1870;53.996;10.784;2023-05-07T08:06:36;14.90;99.90
3709;DHT22;1870;53.996;10.784;2023-05-07T08:09:01;14.90;99.90
3709;DHT22;1870;53.996;10.784;2023-05-07T08:11:28;15.00;99.90
3709;DHT22;1870;53.996;10.784;2023-05-07T08:13:54;15.10;99.90
3709;DHT22;1870;53.996;10.784;2023-05-07T08:16:20;15.00;99.90
3709;DHT22;1870;53.996;10.784;2023-05-07T08:18:48;15.00;99.90
3709;DHT22;1870;53.996;10.784;2023-05-07T08:21:13;15.00;99.90
3709;DHT22;1870;53.996;10.784;2023-05-07T08:23:39;15.10;99.90
3709;DHT22;1870;53.996;10.784;2023-05-07T08:26:05;15.20;99.90
3709;DHT22;1870;53.996;10.784;2023-05-07T08:28:30;15.30;99.90
3709;DHT22;1870;53.996;10.784;2023-05-07T08:30:56;15.40;99.90
3709;DHT22;1870;53.996;10.784;2023-05-07T08:33:22;15.40;99.90
3709;DHT22;1870;53.996;10.784;2023-05-07T08:35:50;15.40;99.90
3709;DHT22;1870;53.996;10.784;2023-05-07T08:38:16;15.50;99.90
3709;DHT22;1870;53.996;10.784;2023-05-07T08:40:41;15.70;99.90
3709;DHT22;1870;53.996;10.784;2023-05-07T08:43:08;15.90;99.90
3709;DHT22;1870;53.996;10.784;2023-05-07T08:45:34;16.00;99.90
3709;DHT22;1870;53.996;10.784;2023-05-07T08:48:09;16.00;99.90
3709;DHT22;1870;53.996;10.784;2023-05-07T08:50:36;16.20;99.90
3709;DHT22;1870;53.996;10.784;2023-05-07T08:53:03;16.20;99.90
3709;DHT22;1870;53.996;10.784;2023-05-07T08:55:30;16.40;99.90
3709;DHT22;1870;53.996;10.784;2023-05-07T08:57:56;16.40;99.90
3709;DHT22;1870;53.996;10.784;2023-05-07T09:00:22;16.20;99.90
3709;DHT22;1870;53.996;10.784;2023-05-07T09:02:47;16.20;99.90
3709;DHT22;1870;53.996;10.784;2023-05-07T09:05:13;16.10;99.90
3709;DHT22;1870;53.996;10.784;2023-05-07T09:07:39;16.10;99.90
3709;DHT22;1870;53.996;10.784;2023-05-07T09:10:05;16.00;99.90
3709;DHT22;1870;53.996;10.784;2023-05-07T09:12:31;16.10;99.90
3709;DHT22;1870;53.996;10.784;2023-05-07T09:14:58;16.10;99.90
3709;DHT22;1870;53.996;10.784;2023-05-07T09:17:24;16.10;99.90
3709;DHT22;1870;53.996;10.784;2023-05-07T09:19:53;16.20;99.90
3709;DHT22;1870;53.996;10.784;2023-05-07T09:22:19;16.20;99.90
3709;DHT22;1870;53.996;10.784;2023-05-07T09:24:52;16.10;99.90
3709;DHT22;1870;53.996;10.784;2023-05-07T09:27:18;16.10;99.90
3709;DHT22;1870;53.996;10.784;2023-05-07T09:29:44;16.00;99.90
3709;DHT22;1870;53.996;10.784;2023-05-07T09:32:10;16.00;99.90
3709;DHT22;1870;53.996;10.784;2023-05-07T09:34:36;16.10;99.90
3709;DHT22;1870;53.996;10.784;2023-05-07T09:37:05;16.10;99.90
3709;DHT22;1870;53.996;10.784;2023-05-07T09:42:06;16.20;99.90
3709;DHT22;1870;53.996;10.784;2023-05-07T09:44:34;16.30;99.90
3709;DHT22;1870;53.996;10.784;2023-05-07T09:47:00;16.30;99.90
3709;DHT22;1870;53.996;10.784;2023-05-07T09:49:29;16.40;99.90
3709;DHT22;1870;53.996;10.784;2023-05-07T09:52:00;16.50;99.90
3709;DHT22;1870;53.996;10.784;2023-05-07T09:54:26;16.60;99.90
3709;DHT22;1870;53.996;10.784;2023-05-07T09:56:55;16.80;99.90
3709;DHT22;1870;53.996;10.784;2023-05-07T09:59:21;16.70;99.90
3709;DHT22;1870;53.996;10.784;2023-05-07T10:01:49;16.60;99.90
3709;DHT22;1870;53.996;10.784;2023-05-07T10:04:14;16.60;99.90
3709;DHT22;1870;53.996;10.784;2023-05-07T10:06:40;16.70;99.90
3709;DHT22;1870;53.996;10.784;2023-05-07T10:09:07;16.80;99.90
3709;DHT22;1870;53.996;10.784;2023-05-07T10:11:33;16.80;99.90
3709;DHT22;1870;53.996;10.784;2023-05-07T10:14:00;17.00;99.90
3709;DHT22;1870;53.996;10.784;2023-05-07T10:16:31;17.00;99.90
3709;DHT22;1870;53.996;10.784;2023-05-07T10:18:58;17.20;99.90
3709;DHT22;1870;53.996;10.784;2023-05-07T10:21:26;17.20;99.90
3709;DHT22;1870;53.996;10.784;2023-05-07T10:24:00;17.10;99.90
3709;DHT22;1870;53.996;10.784;2023-05-07T10:26:33;17.10;99.90
3709;DHT22;1870;53.996;10.784;2023-05-07T10:29:29;17.10;99.90
3709;DHT22;1870;53.996;10.784;2023-05-07T10:34:54;17.20;99.90
3709;DHT22;1870;53.996;10.784;2023-05-07T10:37:21;17.30;99.90
3709;DHT22;1870;53.996;10.784;2023-05-07T10:39:47;17.20;99.90
3709;DHT22;1870;53.996;10.784;2023-05-07T10:42:14;17.10;99.90
3709;DHT22;1870;53.996;10.784;2023-05-07T10:44:40;17.10;99.90
3709;DHT22;1870;53.996;10.784;2023-05-07T10:47:09;17.20;99.90
3709;DHT22;1870;53.996;10.784;2023-05-07T10:50:21;17.30;99.90
3709;DHT22;1870;53.996;10.784;2023-05-07T10:52:23;17.60;99.90
3709;DHT22;1870;53.996;10.784;2023-05-07T10:55:20;17.80;99.90
3709;DHT22;1870;53.996;10.784;2023-05-07T10:57:47;18.00;99.90
3709;DHT22;1870;53.996;10.784;2023-05-07T11:05:25;18.50;99.90
3709;DHT22;1870;53.996;10.784;2023-05-07T11:07:59;18.60;99.90
3709;DHT22;1870;53.996;10.784;2023-05-07T11:13:42;18.80;99.90
3709;DHT22;1870;53.996;10.784;2023-05-07T11:16:25;18.80;99.90
3709;DHT22;1870;53.996;10.784;2023-05-07T11:18:54;18.90;99.90
3709;DHT22;1870;53.996;10.784;2023-05-07T11:23:59;18.90;99.90
3709;DHT22;1870;53.996;10.784;2023-05-07T11:26:53;18.90;99.90
3709;DHT22;1870;53.996;10.784;2023-05-07T11:29:20;19.00;99.90
3709;DHT22;1870;53.996;10.784;2023-05-07T11:31:51;19.00;99.90
3709;DHT22;1870;53.996;10.784;2023-05-07T11:34:27;19.10;99.90
3709;DHT22;1870;53.996;10.784;2023-05-07T11:36:53;19.10;99.90
3709;DHT22;1870;53.996;10.784;2023-05-07T11:39:30;19.10;99.90
3709;DHT22;1870;53.996;10.784;2023-05-07T11:41:59;19.30;99.90
3709;DHT22;1870;53.996;10.784;2023-05-07T11:44:24;19.20;99.90
3709;DHT22;1870;53.996;10.784;2023-05-07T11:46:50;19.30;99.90
3709;DHT22;1870;53.996;10.784;2023-05-07T11:49:16;19.50;99.90
3709;DHT22;1870;53.996;10.784;2023-05-07T11:51:42;19.60;99.90
3709;DHT22;1870;53.996;10.784;2023-05-07T11:54:08;19.70;99.90
3709;DHT22;1870;53.996;10.784;2023-05-07T11:56:37;19.70;99.90
3709;DHT22;1870;53.996;10.784;2023-05-07T11:59:02;19.80;99.90
3709;DHT22;1870;53.996;10.784;2023-05-07T12:01:28;19.80;99.90
3709;DHT22;1870;53.996;10.784;2023-05-07T12:03:54;19.70;99.90
3709;DHT22;1870;53.996;10.784;2023-05-07T12:06:19;19.70;99.90
3709;DHT22;1870;53.996;10.784;2023-05-07T12:08:46;19.80;99.90
3709;DHT22;1870;53.996;10.784;2023-05-07T12:11:18;19.60;99.90
3709;DHT22;1870;53.996;10.784;2023-05-07T12:13:46;19.50;99.90
3709;DHT22;1870;53.996;10.784;2023-05-07T12:16:12;19.40;99.90
3709;DHT22;1870;53.996;10.784;2023-05-07T12:18:39;19.20;99.90
3709;DHT22;1870;53.996;10.784;2023-05-07T12:21:06;19.00;99.90
3709;DHT22;1870;53.996;10.784;2023-05-07T12:23:33;19.00;99.90
3709;DHT22;1870;53.996;10.784;2023-05-07T12:25:59;19.10;99.90
3709;DHT22;1870;53.996;10.784;2023-05-07T12:28:28;19.20;99.90
3709;DHT22;1870;53.996;10.784;2023-05-07T12:30:54;19.30;99.90
3709;DHT22;1870;53.996;10.784;2023-05-07T12:33:25;19.50;99.90
3709;DHT22;1870;53.996;10.784;2023-05-07T12:35:51;19.60;99.90
3709;DHT22;1870;53.996;10.784;2023-05-07T12:38:18;19.70;99.90
3709;DHT22;1870;53.996;10.784;2023-05-07T12:40:48;19.90;99.90
3709;DHT22;1870;53.996;10.784;2023-05-07T12:43:21;20.00;99.90
3709;DHT22;1870;53.996;10.784;2023-05-07T12:45:48;20.10;99.90
3709;DHT22;1870;53.996;10.784;2023-05-07T12:48:14;20.10;99.90
3709;DHT22;1870;53.996;10.784;2023-05-07T12:50:40;19.90;99.90
3709;DHT22;1870;53.996;10.784;2023-05-07T12:53:07;19.80;99.90
3709;DHT22;1870;53.996;10.784;2023-05-07T12:55:45;19.70;99.90
3709;DHT22;1870;53.996;10.784;2023-05-07T12:58:16;19.70;99.90
3709;DHT22;1870;53.996;10.784;2023-05-07T13:00:42;19.80;99.90
3709;DHT22;1870;53.996;10.784;2023-05-07T13:03:09;19.80;99.90
3709;DHT22;1870;53.996;10.784;2023-05-07T13:05:34;19.90;99.90
3709;DHT22;1870;53.996;10.784;2023-05-07T13:08:00;20.00;99.90
3709;DHT22;1870;53.996;10.784;2023-05-07T13:10:27;20.00;99.90
3709;DHT22;1870;53.996;10.784;2023-05-07T13:12:53;20.10;99.90
3709;DHT22;1870;53.996;10.784;2023-05-07T13:15:19;20.30;99.90
3709;DHT22;1870;53.996;10.784;2023-05-07T13:17:45;20.50;99.90
3709;DHT22;1870;53.996;10.784;2023-05-07T13:20:12;20.70;99.90
3709;DHT22;1870;53.996;10.784;2023-05-07T13:22:39;20.90;99.90
3709;DHT22;1870;53.996;10.784;2023-05-07T13:25:06;20.90;99.90
3709;DHT22;1870;53.996;10.784;2023-05-07T13:27:32;20.90;99.90
3709;DHT22;1870;53.996;10.784;2023-05-07T13:29:57;20.70;99.90
3709;DHT22;1870;53.996;10.784;2023-05-07T13:32:23;20.60;99.90
3709;DHT22;1870;53.996;10.784;2023-05-07T13:34:48;20.50;99.90
3709;DHT22;1870;53.996;10.784;2023-05-07T13:37:14;20.60;99.90
3709;DHT22;1870;53.996;10.784;2023-05-07T13:39:39;20.80;99.90
3709;DHT22;1870;53.996;10.784;2023-05-07T13:42:06;21.00;99.90
3709;DHT22;1870;53.996;10.784;2023-05-07T13:44:32;21.20;99.90
3709;DHT22;1870;53.996;10.784;2023-05-07T13:46:57;21.10;99.90
3709;DHT22;1870;53.996;10.784;2023-05-07T13:49:23;21.10;99.90
3709;DHT22;1870;53.996;10.784;2023-05-07T13:51:49;21.10;99.90
3709;DHT22;1870;53.996;10.784;2023-05-07T13:54:15;21.00;99.90
3709;DHT22;1870;53.996;10.784;2023-05-07T13:56:41;21.00;99.90
3709;DHT22;1870;53.996;10.784;2023-05-07T13:59:07;21.20;99.90
3709;DHT22;1870;53.996;10.784;2023-05-07T14:01:33;21.20;99.90
3709;DHT22;1870;53.996;10.784;2023-05-07T14:03:58;21.20;99.90
3709;DHT22;1870;53.996;10.784;2023-05-07T14:06:25;21.20;99.90
3709;DHT22;1870;53.996;10.784;2023-05-07T14:08:51;21.10;99.90
3709;DHT22;1870;53.996;10.784;2023-05-07T14:11:16;21.10;99.90
3709;DHT22;1870;53.996;10.784;2023-05-07T14:13:42;21.00;99.90
3709;DHT22;1870;53.996;10.784;2023-05-07T14:16:08;21.00;99.90
3709;DHT22;1870;53.996;10.784;2023-05-07T14:18:33;21.10;99.90
3709;DHT22;1870;53.996;10.784;2023-05-07T14:21:03;21.00;99.90
3709;DHT22;1870;53.996;10.784;2023-05-07T14:23:29;20.80;99.90
3709;DHT22;1870;53.996;10.784;2023-05-07T14:25:59;20.70;99.90
3709;DHT22;1870;53.996;10.784;2023-05-07T14:28:25;20.80;99.90
3709;DHT22;1870;53.996;10.784;2023-05-07T14:30:51;21.00;99.90
3709;DHT22;1870;53.996;10.784;2023-05-07T14:33:17;21.10;99.90
3709;DHT22;1870;53.996;10.784;2023-05-07T14:35:42;21.30;99.90
3709;DHT22;1870;53.996;10.784;2023-05-07T14:38:13;21.30;99.90
3709;DHT22;1870;53.996;10.784;2023-05-07T14:40:38;21.10;99.90
3709;DHT22;1870;53.996;10.784;2023-05-07T14:43:04;21.10;99.90
3709;DHT22;1870;53.996;10.784;2023-05-07T14:45:30;21.20;99.90
3709;DHT22;1870;53.996;10.784;2023-05-07T14:47:55;21.50;99.90
3709;DHT22;1870;53.996;10.784;2023-05-07T14:50:21;21.60;99.90
3709;DHT22;1870;53.996;10.784;2023-05-07T14:52:47;21.70;99.90
3709;DHT22;1870;53.996;10.784;2023-05-07T14:55:12;21.60;99.90
3709;DHT22;1870;53.996;10.784;2023-05-07T14:57:38;21.50;99.90
3709;DHT22;1870;53.996;10.784;2023-05-07T15:00:04;21.40;99.90
3709;DHT22;1870;53.996;10.784;2023-05-07T15:02:30;21.20;99.90
3709;DHT22;1870;53.996;10.784;2023-05-07T15:04:56;21.30;99.90
3709;DHT22;1870;53.996;10.784;2023-05-07T15:07:21;21.30;99.90
3709;DHT22;1870;53.996;10.784;2023-05-07T15:09:47;21.20;99.90
3709;DHT22;1870;53.996;10.784;2023-05-07T15:12:16;21.10;99.90
3709;DHT22;1870;53.996;10.784;2023-05-07T15:14:41;21.10;99.90
3709;DHT22;1870;53.996;10.784;2023-05-07T15:17:07;21.10;99.90
3709;DHT22;1870;53.996;10.784;2023-05-07T15:19:34;21.10;99.90
3709;DHT22;1870;53.996;10.784;2023-05-07T15:22:00;21.10;99.90
3709;DHT22;1870;53.996;10.784;2023-05-07T15:24:29;21.20;99.90
3709;DHT22;1870;53.996;10.784;2023-05-07T15:26:55;21.20;99.90
3709;DHT22;1870;53.996;10.784;2023-05-07T15:29:21;21.00;99.90
3709;DHT22;1870;53.996;10.784;2023-05-07T15:31:46;20.60;99.90
3709;DHT22;1870;53.996;10.784;2023-05-07T15:34:12;20.00;99.90
3709;DHT22;1870;53.996;10.784;2023-05-07T15:36:40;19.70;99.90
3709;DHT22;1870;53.996;10.784;2023-05-07T15:39:06;19.20;99.90
3709;DHT22;1870;53.996;10.784;2023-05-07T15:41:31;19.00;99.90
3709;DHT22;1870;53.996;10.784;2023-05-07T15:43:57;18.90;99.90
3709;DHT22;1870;53.996;10.784;2023-05-07T15:46:24;18.80;99.90
3709;DHT22;1870;53.996;10.784;2023-05-07T15:48:50;18.90;99.90
3709;DHT22;1870;53.996;10.784;2023-05-07T15:51:16;18.80;99.90
3709;DHT22;1870;53.996;10.784;2023-05-07T15:53:46;18.70;99.90
3709;DHT22;1870;53.996;10.784;2023-05-07T15:56:12;18.70;99.90
3709;DHT22;1870;53.996;10.784;2023-05-07T15:58:37;18.70;99.90